createdAt,value
2023-04-19T00:00:27.829Z,99752.19
2023-04-19T00:03:07.058Z,99748.56
2023-04-19T00:05:45.636Z,99750.06
2023-04-19T00:08:23.491Z,99740.13
2023-04-19T00:11:01.204Z,99745.53
2023-04-19T00:13:43.936Z,99738.78
2023-04-19T00:16:22.272Z,99742.97
2023-04-19T00:18:58.193Z,99738.84
2023-04-19T00:21:39.758Z,99729.75
2023-04-19T00:24:18.045Z,99730.50
2023-04-19T00:27:03.848Z,99729.84
2023-04-19T00:29:47.165Z,99722.78
2023-04-19T00:32:23.703Z,99727.63
2023-04-19T00:35:01.581Z,99713.97
2023-04-19T00:37:45.120Z,99716.50
2023-04-19T00:40:27.958Z,99722.34
2023-04-19T00:43:05.892Z,99715.69
2023-04-19T00:45:38.474Z,99712.69
2023-04-19T00:48:22.740Z,99716.50
2023-04-19T00:50:55.602Z,99712.38
2023-04-19T00:53:41.085Z,99714.84
2023-04-19T00:56:09.675Z,99710.28
2023-04-19T00:58:45.680Z,99710.81
2023-04-19T01:01:25.429Z,99711.31
2023-04-19T01:04:03.566Z,99704.72
2023-04-19T01:06:43.675Z,99693.38
2023-04-19T01:09:19.242Z,99704.47
2023-04-19T01:12:03.581Z,99699.06
2023-04-19T01:14:39.634Z,99701.31
2023-04-19T01:17:14.722Z,99696.50
2023-04-19T01:20:01.039Z,99698.47
2023-04-19T01:22:40.786Z,99687.75
2023-04-19T01:25:21.665Z,99678.69
2023-04-19T01:28:00.033Z,99673.94
2023-04-19T01:30:36.002Z,99673.63
2023-04-19T01:33:12.073Z,99669.81
2023-04-19T01:35:50.634Z,99677.53
2023-04-19T01:38:33.384Z,99673.94
2023-04-19T01:41:09.124Z,99670.63
2023-04-19T01:43:41.970Z,99670.16
2023-04-19T01:46:28.476Z,99662.44
2023-04-19T01:49:03.673Z,99654.88
2023-04-19T01:51:44.520Z,99657.44
2023-04-19T01:54:28.363Z,99655.00
2023-04-19T01:57:01.240Z,99654.81
2023-04-19T01:59:40.592Z,99659.34
2023-04-19T02:02:15.793Z,99647.53
2023-04-19T02:04:44.220Z,99648.81
2023-04-19T02:07:22.098Z,99649.41
2023-04-19T02:10:06.148Z,99648.63
2023-04-19T02:12:43.745Z,99644.72
2023-04-19T02:15:24.467Z,99638.03
2023-04-19T02:18:07.701Z,99643.97
2023-04-19T02:20:46.945Z,99643.09
2023-04-19T02:23:21.902Z,99639.41
2023-04-19T02:25:56.259Z,99640.47
2023-04-19T02:28:38.277Z,99634.03
2023-04-19T02:31:16.069Z,99636.00
2023-04-19T02:33:49.399Z,99637.28
2023-04-19T02:36:25.039Z,99631.88
2023-04-19T02:38:54.295Z,99629.63
2023-04-19T02:41:29.122Z,99630.38
2023-04-19T02:44:06.071Z,99628.13
2023-04-19T02:46:43.225Z,99624.97
2023-04-19T02:49:21.520Z,99628.28
2023-04-19T02:52:00.620Z,99624.59
2023-04-19T02:54:30.519Z,99629.16
2023-04-19T02:57:11.746Z,99619.69
2023-04-19T02:59:54.654Z,99623.88
2023-04-19T03:02:40.964Z,99615.50
2023-04-19T03:05:19.087Z,99615.78
2023-04-19T03:08:01.206Z,99608.19
2023-04-19T03:10:42.489Z,99604.22
2023-04-19T03:13:27.102Z,99601.28
2023-04-19T03:15:59.877Z,99592.09
2023-04-19T03:18:48.066Z,99590.50
2023-04-19T03:21:29.215Z,99594.78
2023-04-19T03:24:11.518Z,99590.50
2023-04-19T03:27:05.569Z,99588.69
2023-04-19T03:29:41.023Z,99585.19
2023-04-19T03:32:22.113Z,99583.22
2023-04-19T03:35:01.128Z,99583.25
2023-04-19T03:37:39.768Z,99580.66
2023-04-19T03:40:12.821Z,99584.44
2023-04-19T03:42:47.579Z,99579.53
2023-04-19T03:45:42.370Z,99583.94
2023-04-19T03:48:20.727Z,99580.44
2023-04-19T03:51:02.060Z,99576.53
2023-04-19T03:53:45.939Z,99585.50
2023-04-19T03:56:24.355Z,99578.66
2023-04-19T03:59:06.480Z,99582.00
2023-04-19T04:01:48.586Z,99576.63
2023-04-19T04:04:27.374Z,99587.41
2023-04-19T04:07:03.406Z,99577.94
2023-04-19T04:09:46.947Z,99578.13
2023-04-19T04:12:24.168Z,99577.13
2023-04-19T04:14:59.464Z,99578.56
2023-04-19T04:17:40.125Z,99577.53
2023-04-19T04:20:21.148Z,99580.63
2023-04-19T04:22:58.645Z,99575.22
2023-04-19T04:25:39.592Z,99574.63
2023-04-19T04:28:26.820Z,99573.38
2023-04-19T04:31:06.714Z,99561.78
2023-04-19T04:33:42.946Z,99572.16
2023-04-19T04:36:18.825Z,99573.38
2023-04-19T04:38:54.612Z,99565.91
2023-04-19T04:41:31.663Z,99567.16
2023-04-19T04:44:12.899Z,99569.16
2023-04-19T04:47:03.285Z,99563.38
2023-04-19T04:49:41.129Z,99567.03
2023-04-19T04:52:18.602Z,99559.03
2023-04-19T04:55:03.738Z,99568.09
2023-04-19T04:57:45.732Z,99560.38
2023-04-19T05:00:24.631Z,99557.19
2023-04-19T05:03:12.192Z,99565.34
2023-04-19T05:05:50.730Z,99566.31
2023-04-19T05:08:23.568Z,99564.25
2023-04-19T05:11:03.707Z,99566.53
2023-04-19T05:13:47.153Z,99563.44
2023-04-19T05:16:26.710Z,99557.13
2023-04-19T05:19:04.925Z,99558.28
2023-04-19T05:21:44.965Z,99562.88
2023-04-19T05:24:24.626Z,99561.75
2023-04-19T05:26:59.873Z,99556.16
2023-04-19T05:29:41.479Z,99561.53
2023-04-19T05:32:13.605Z,99562.91
2023-04-19T05:35:01.498Z,99554.50
2023-04-19T05:37:36.720Z,99551.59
2023-04-19T05:40:15.617Z,99550.94
2023-04-19T05:42:59.886Z,99554.84
2023-04-19T05:45:43.116Z,99557.31
2023-04-19T05:48:24.118Z,99551.19
2023-04-19T05:51:24.849Z,99553.06
2023-04-19T05:54:14.634Z,99555.06
2023-04-19T05:56:53.465Z,99552.56
2023-04-19T05:59:34.157Z,99558.69
2023-04-19T06:02:16.755Z,99553.75
2023-04-19T06:04:49.663Z,99551.84
2023-04-19T06:07:31.835Z,99550.59
2023-04-19T06:10:15.708Z,99550.56
2023-04-19T06:12:45.371Z,99557.28
2023-04-19T06:15:25.976Z,99547.72
2023-04-19T06:18:08.984Z,99545.09
2023-04-19T06:20:47.746Z,99549.88
2023-04-19T06:23:27.148Z,99539.66
2023-04-19T06:26:10.296Z,99547.66
2023-04-19T06:28:46.632Z,99543.03
2023-04-19T06:31:27.530Z,99542.31
2023-04-19T06:34:11.382Z,99539.31
2023-04-19T06:36:52.611Z,99548.44
2023-04-19T06:39:37.236Z,99541.13
2023-04-19T06:42:20.983Z,99543.47
2023-04-19T06:45:01.508Z,99539.00
2023-04-19T06:47:48.685Z,99538.69
2023-04-19T06:50:21.554Z,99542.06
2023-04-19T06:52:56.977Z,99533.09
2023-04-19T06:55:43.592Z,99529.75
2023-04-19T06:58:27.246Z,99530.41
2023-04-19T07:01:05.450Z,99525.78
2023-04-19T07:03:41.982Z,99525.75
2023-04-19T07:06:20.546Z,99526.63
2023-04-19T07:08:53.635Z,99527.47
2023-04-19T07:11:29.584Z,99522.06
2023-04-19T07:14:10.755Z,99523.34
2023-04-19T07:16:51.636Z,99523.63
2023-04-19T07:19:33.563Z,99519.84
2023-04-19T07:22:15.245Z,99525.84
2023-04-19T07:24:59.064Z,99519.97
2023-04-19T07:27:37.265Z,99522.13
2023-04-19T07:30:18.088Z,99514.78
2023-04-19T07:32:59.473Z,99521.91
2023-04-19T07:35:35.525Z,99518.13
2023-04-19T07:38:17.383Z,99519.84
2023-04-19T07:40:58.313Z,99523.63
2023-04-19T07:43:39.270Z,99513.81
2023-04-19T07:46:19.246Z,99519.84
2023-04-19T07:49:03.052Z,99520.38
2023-04-19T07:51:35.553Z,99523.59
2023-04-19T07:54:16.418Z,99516.47
2023-04-19T07:56:59.165Z,99521.44
2023-04-19T07:59:42.737Z,99509.47
2023-04-19T08:02:19.293Z,99504.53
2023-04-19T08:04:49.997Z,99508.91
2023-04-19T08:07:28.468Z,99514.41
2023-04-19T08:10:12.130Z,99506.13
2023-04-19T08:13:05.052Z,99510.50
2023-04-19T08:18:25.471Z,99501.75
2023-04-19T08:21:12.206Z,99508.56
2023-04-19T08:23:48.262Z,99503.50
2023-04-19T08:26:24.186Z,99503.94
2023-04-19T08:29:15.323Z,99496.69
2023-04-19T08:31:53.698Z,99505.72
2023-04-19T08:34:45.488Z,99501.34
2023-04-19T08:37:27.038Z,99488.91
2023-04-19T08:40:08.727Z,99492.84
2023-04-19T08:42:49.884Z,99494.47
2023-04-19T08:45:29.364Z,99477.69
2023-04-19T08:48:10.418Z,99486.44
2023-04-19T08:51:00.607Z,99480.09
2023-04-19T08:53:46.618Z,99485.38
2023-04-19T08:56:34.791Z,99482.78
2023-04-19T08:59:20.499Z,99483.91
2023-04-19T09:02:06.725Z,99479.47
2023-04-19T09:04:53.754Z,99475.06
2023-04-19T09:07:32.806Z,99477.53
2023-04-19T09:10:26.039Z,99476.59
2023-04-19T09:13:13.850Z,99468.47
2023-04-19T09:15:54.666Z,99460.22
2023-04-19T09:18:42.551Z,99456.72
2023-04-19T09:21:40.969Z,99460.06
2023-04-19T09:24:16.780Z,99457.78
2023-04-19T09:26:54.859Z,99454.13
2023-04-19T09:29:33.290Z,99463.88
2023-04-19T09:32:14.362Z,99449.81
2023-04-19T09:35:05.663Z,99454.72
2023-04-19T09:38:02.128Z,99455.13
2023-04-19T09:40:41.138Z,99445.84
2023-04-19T09:43:45.205Z,99444.72
2023-04-19T09:46:36.282Z,99434.47
2023-04-19T09:49:33.734Z,99443.25
2023-04-19T09:52:16.597Z,99437.38
2023-04-19T09:54:53.227Z,99447.84
2023-04-19T09:57:31.235Z,99447.75
2023-04-19T10:00:15.787Z,99445.47
2023-04-19T10:02:54.812Z,99449.78
2023-04-19T10:05:41.781Z,99444.22
2023-04-19T10:08:17.641Z,99450.72
2023-04-19T10:10:56.915Z,99435.22
2023-04-19T10:13:30.357Z,99439.53
2023-04-19T10:16:15.524Z,99438.56
2023-04-19T10:18:55.335Z,99428.06
2023-04-19T10:21:39.578Z,99427.34
2023-04-19T10:24:20.565Z,99426.19
2023-04-19T10:27:13.274Z,99431.38
2023-04-19T10:30:07.387Z,99421.06
2023-04-19T10:32:43.549Z,99413.31
2023-04-19T10:35:34.970Z,99415.56
2023-04-19T10:38:16.334Z,99414.59
2023-04-19T10:41:00.736Z,99415.50
2023-04-19T10:43:42.425Z,99420.81
2023-04-19T10:46:30.029Z,99417.59
2023-04-19T10:49:13.747Z,99407.00
2023-04-19T10:51:55.067Z,99411.09
2023-04-19T10:54:36.538Z,99400.38
2023-04-19T10:57:16.216Z,99410.78
2023-04-19T11:00:31.595Z,99403.03
2023-04-19T11:03:36.932Z,99407.94
2023-04-19T11:07:01.671Z,99406.09
2023-04-19T11:09:48.420Z,99396.94
2023-04-19T11:12:27.772Z,99397.38
2023-04-19T11:15:11.964Z,99400.94
2023-04-19T11:17:42.820Z,99397.19
2023-04-19T11:20:26.656Z,99396.75
2023-04-19T11:23:04.342Z,99400.72
2023-04-19T11:25:42.572Z,99395.16
2023-04-19T11:28:21.741Z,99405.47
2023-04-19T11:30:59.884Z,99389.97
2023-04-19T11:33:50.223Z,99385.72
2023-04-19T11:36:29.702Z,99390.00
2023-04-19T11:39:07.676Z,99399.97
2023-04-19T11:41:47.501Z,99394.88
2023-04-19T11:44:34.397Z,99397.44
2023-04-19T11:47:15.174Z,99380.94
2023-04-19T11:50:25.285Z,99392.56
2023-04-19T11:52:57.645Z,99401.59
2023-04-19T11:55:44.832Z,99387.72
2023-04-19T11:58:55.270Z,99385.19
2023-04-19T12:01:40.076Z,99384.00
2023-04-19T12:04:23.694Z,99389.63
2023-04-19T12:07:01.764Z,99380.63
2023-04-19T12:09:38.982Z,99385.41
2023-04-19T12:12:34.966Z,99379.41
2023-04-19T12:15:15.629Z,99379.91
2023-04-19T12:18:12.865Z,99387.88
2023-04-19T12:20:59.498Z,99394.19
2023-04-19T12:23:45.112Z,99387.84
2023-04-19T12:26:31.408Z,99380.25
2023-04-19T12:29:12.822Z,99380.44
2023-04-19T12:31:58.913Z,99380.84
2023-04-19T12:34:36.734Z,99382.25
2023-04-19T12:37:12.169Z,99379.94
2023-04-19T12:39:50.513Z,99372.72
2023-04-19T12:42:29.012Z,99375.91
2023-04-19T12:45:06.691Z,99380.84
2023-04-19T12:47:50.223Z,99375.59
2023-04-19T12:50:34.538Z,99361.91
2023-04-19T12:53:09.715Z,99376.38
2023-04-19T12:55:49.810Z,99375.59
2023-04-19T12:58:36.064Z,99364.84
2023-04-19T13:01:12.773Z,99373.56
2023-04-19T13:03:50.365Z,99367.44
2023-04-19T13:06:28.591Z,99368.09
2023-04-19T13:11:58.667Z,99368.69
2023-04-19T13:14:36.350Z,99359.81
2023-04-19T13:17:13.069Z,99358.47
2023-04-19T13:19:53.648Z,99361.81
2023-04-19T13:22:32.541Z,99354.00
2023-04-19T13:25:10.764Z,99358.66
2023-04-19T13:27:47.605Z,99360.28
2023-04-19T13:30:26.058Z,99357.88
2023-04-19T13:33:01.585Z,99363.25
2023-04-19T13:35:45.570Z,99360.31
2023-04-19T13:38:18.963Z,99360.09
2023-04-19T13:40:57.090Z,99360.00
2023-04-19T13:43:35.067Z,99357.16
2023-04-19T13:46:12.465Z,99357.31
2023-04-19T13:48:56.581Z,99355.84
2023-04-19T13:51:46.249Z,99361.03
2023-04-19T13:54:25.487Z,99353.31
2023-04-19T13:57:06.292Z,99350.13
2023-04-19T13:59:43.770Z,99349.47
2023-04-19T14:02:21.566Z,99344.69
2023-04-19T14:04:59.125Z,99340.56
2023-04-19T14:07:34.582Z,99350.88
2023-04-19T14:10:12.277Z,99350.41
2023-04-19T14:12:58.558Z,99359.94
2023-04-19T14:15:33.224Z,99361.91
2023-04-19T14:18:17.008Z,99347.91
2023-04-19T14:20:55.208Z,99356.38
2023-04-19T14:23:28.008Z,99361.41
2023-04-19T14:26:03.390Z,99368.59
2023-04-19T14:28:38.549Z,99380.28
2023-04-19T14:31:21.750Z,99374.31
2023-04-19T14:34:00.045Z,99383.69
2023-04-19T14:36:44.069Z,99386.81
2023-04-19T14:39:22.590Z,99382.28
2023-04-19T14:42:00.720Z,99379.88
2023-04-19T14:44:43.958Z,99380.69
2023-04-19T14:47:19.253Z,99380.19
2023-04-19T14:50:00.601Z,99390.28
2023-04-19T14:52:41.603Z,99393.84
2023-04-19T14:55:28.577Z,99397.41
2023-04-19T14:58:10.352Z,99399.88
2023-04-19T15:00:45.753Z,99398.69
2023-04-19T15:03:27.378Z,99395.94
2023-04-19T15:06:00.937Z,99400.03
2023-04-19T15:08:38.567Z,99400.97
2023-04-19T15:11:10.623Z,99397.00
2023-04-19T15:13:46.575Z,99399.47
2023-04-19T15:16:29.450Z,99409.06
2023-04-19T15:19:07.685Z,99403.97
2023-04-19T15:21:48.741Z,99402.88
2023-04-19T15:24:21.412Z,99404.53
2023-04-19T15:27:04.751Z,99404.13
2023-04-19T15:29:41.428Z,99407.22
2023-04-19T15:32:30.564Z,99404.38
2023-04-19T15:35:06.144Z,99414.06
2023-04-19T15:37:46.887Z,99416.22
2023-04-19T15:40:50.226Z,99423.50
2023-04-19T15:43:42.581Z,99421.38
2023-04-19T15:46:16.919Z,99425.81
2023-04-19T15:48:58.143Z,99432.19
2023-04-19T15:51:39.166Z,99432.13
2023-04-19T15:54:25.142Z,99434.09
2023-04-19T15:57:09.585Z,99423.50
2023-04-19T15:59:44.947Z,99423.09
2023-04-19T16:02:33.603Z,99432.06
2023-04-19T16:05:17.800Z,99426.66
2023-04-19T16:08:07.312Z,99432.41
2023-04-19T16:10:45.638Z,99425.41
2023-04-19T16:13:25.865Z,99422.44
2023-04-19T16:16:01.544Z,99427.41
2023-04-19T16:18:37.047Z,99426.88
2023-04-19T16:21:12.234Z,99426.09
2023-04-19T16:23:53.749Z,99428.78
2023-04-19T16:26:31.389Z,99430.66
2023-04-19T16:29:09.557Z,99440.25
2023-04-19T16:31:52.247Z,99438.81
2023-04-19T16:34:30.648Z,99439.69
2023-04-19T16:37:06.564Z,99442.19
2023-04-19T16:39:33.465Z,99445.97
2023-04-19T16:42:10.554Z,99440.88
2023-04-19T16:44:56.151Z,99439.66
2023-04-19T16:47:37.614Z,99432.13
2023-04-19T16:50:23.356Z,99441.19
2023-04-19T16:53:04.143Z,99441.63
2023-04-19T16:55:41.796Z,99433.97
2023-04-19T16:58:18.910Z,99444.84
2023-04-19T17:01:02.816Z,99447.31
2023-04-19T17:03:44.542Z,99450.63
2023-04-19T17:06:25.279Z,99456.84
2023-04-19T17:09:01.416Z,99459.91
2023-04-19T17:11:42.613Z,99467.22
2023-04-19T17:14:17.973Z,99466.69
2023-04-19T17:17:05.362Z,99464.03
2023-04-19T17:19:40.480Z,99470.66
2023-04-19T17:22:18.636Z,99463.75
2023-04-19T17:24:51.477Z,99463.13
2023-04-19T17:27:33.682Z,99462.47
2023-04-19T17:30:12.652Z,99465.91
2023-04-19T17:32:56.444Z,99468.41
2023-04-19T17:35:39.704Z,99473.75
2023-04-19T17:38:17.457Z,99481.16
2023-04-19T17:41:03.626Z,99486.78
2023-04-19T17:43:38.850Z,99489.78
2023-04-19T17:46:19.638Z,99492.53
2023-04-19T17:49:00.252Z,99496.47
2023-04-19T17:51:42.335Z,99498.22
2023-04-19T17:54:16.024Z,99500.75
2023-04-19T17:56:46.296Z,99501.38
2023-04-19T17:59:23.910Z,99508.38
2023-04-19T18:01:59.980Z,99514.06
2023-04-19T18:04:51.258Z,99514.53
2023-04-19T18:07:34.040Z,99520.91
2023-04-19T18:10:09.551Z,99526.34
2023-04-19T18:13:13.441Z,99531.16
2023-04-19T18:15:49.612Z,99539.06
2023-04-19T18:18:31.829Z,99541.38
2023-04-19T18:21:19.123Z,99550.00
2023-04-19T18:23:57.410Z,99551.41
2023-04-19T18:26:42.568Z,99554.72
2023-04-19T18:29:22.040Z,99553.63
2023-04-19T18:31:55.395Z,99558.00
2023-04-19T18:34:42.750Z,99565.28
2023-04-19T18:37:22.847Z,99560.91
2023-04-19T18:40:07.460Z,99563.81
2023-04-19T18:42:39.200Z,99567.72
2023-04-19T18:45:17.428Z,99575.94
2023-04-19T18:48:03.758Z,99571.69
2023-04-19T18:50:40.621Z,99573.75
2023-04-19T18:53:24.468Z,99565.47
2023-04-19T18:56:00.549Z,99574.25
2023-04-19T18:58:37.602Z,99574.72
2023-04-19T19:01:18.602Z,99571.41
2023-04-19T19:04:21.178Z,99576.44
2023-04-19T19:06:58.354Z,99582.78
2023-04-19T19:09:55.246Z,99585.56
2023-04-19T19:12:37.672Z,99587.63
2023-04-19T19:15:14.555Z,99584.00
2023-04-19T19:17:50.576Z,99585.88
2023-04-19T19:20:31.542Z,99587.53
2023-04-19T19:23:07.198Z,99591.09
2023-04-19T19:25:47.857Z,99595.59
2023-04-19T19:28:22.589Z,99590.66
2023-04-19T19:30:58.001Z,99595.13
2023-04-19T19:33:40.815Z,99593.63
2023-04-19T19:36:13.981Z,99595.38
2023-04-19T19:39:01.091Z,99595.91
2023-04-19T19:42:04.313Z,99601.47
2023-04-19T19:44:29.542Z,99597.94
2023-04-19T19:47:13.299Z,99596.66
2023-04-19T19:50:32.030Z,99591.16
2023-04-19T19:52:51.018Z,99596.88
2023-04-19T19:55:24.711Z,99593.50
2023-04-19T20:00:47.964Z,99592.88
2023-04-19T20:03:36.879Z,99599.72
2023-04-19T20:08:51.446Z,99598.09
2023-04-19T20:11:32.111Z,99606.03
2023-04-19T20:14:10.995Z,99601.50
2023-04-19T20:16:46.421Z,99607.78
2023-04-19T20:19:25.045Z,99592.44
2023-04-19T20:22:03.343Z,99596.94
2023-04-19T20:24:45.836Z,99602.41
2023-04-19T20:27:22.048Z,99594.19
2023-04-19T20:30:00.931Z,99607.47
2023-04-19T20:32:36.679Z,99602.34
2023-04-19T20:35:14.586Z,99599.91
2023-04-19T20:38:02.680Z,99605.16
2023-04-19T20:40:44.276Z,99613.63
2023-04-19T20:43:25.617Z,99607.88
2023-04-19T20:46:02.002Z,99604.44
2023-04-19T20:48:36.847Z,99607.38
2023-04-19T20:51:20.683Z,99612.28
2023-04-19T20:53:55.981Z,99616.47
2023-04-19T20:56:35.566Z,99619.41
2023-04-19T20:59:13.730Z,99623.19
2023-04-19T21:01:56.977Z,99623.66
2023-04-19T21:04:34.918Z,99628.31
2023-04-19T21:07:19.565Z,99629.81
2023-04-19T21:09:55.890Z,99629.00
2023-04-19T21:12:31.255Z,99629.22
2023-04-19T21:15:24.909Z,99624.88
2023-04-19T21:18:06.630Z,99625.13
2023-04-19T21:20:42.651Z,99629.94
2023-04-19T21:23:28.189Z,99630.13
2023-04-19T21:26:04.637Z,99633.47
2023-04-19T21:28:43.972Z,99634.06
2023-04-19T21:31:27.168Z,99634.31
2023-04-19T21:34:03.559Z,99628.31
2023-04-19T21:36:44.550Z,99628.53
2023-04-19T21:39:14.138Z,99629.34
2023-04-19T21:41:52.566Z,99641.56
2023-04-19T21:44:30.556Z,99644.06
2023-04-19T21:47:08.212Z,99648.22
2023-04-19T21:49:38.685Z,99645.09
2023-04-19T21:52:14.087Z,99653.59
2023-04-19T21:54:52.886Z,99647.78
2023-04-19T21:57:31.727Z,99648.19
2023-04-19T22:00:05.341Z,99647.38
2023-04-19T22:02:42.046Z,99659.19
2023-04-19T22:05:20.809Z,99657.91
2023-04-19T22:07:59.030Z,99651.06
2023-04-19T22:10:33.660Z,99650.66
2023-04-19T22:13:14.542Z,99658.34
2023-04-19T22:15:47.535Z,99659.97
2023-04-19T22:18:25.871Z,99665.31
2023-04-19T22:21:00.501Z,99672.31
2023-04-19T22:23:43.665Z,99669.41
2023-04-19T22:26:21.427Z,99660.28
2023-04-19T22:29:01.757Z,99658.63
2023-04-19T22:31:45.500Z,99664.41
2023-04-19T22:34:23.439Z,99661.91
2023-04-19T22:37:07.576Z,99668.25
2023-04-19T22:39:47.943Z,99663.91
2023-04-19T22:42:18.632Z,99670.09
2023-04-19T22:44:54.536Z,99660.19
2023-04-19T22:47:33.730Z,99665.13
2023-04-19T22:50:14.387Z,99658.03
2023-04-19T22:52:55.566Z,99665.44
2023-04-19T22:55:39.572Z,99663.81
2023-04-19T22:58:19.881Z,99662.75
2023-04-19T23:00:57.547Z,99665.56
2023-04-19T23:03:35.991Z,99659.13
2023-04-19T23:06:14.770Z,99663.44
2023-04-19T23:08:53.557Z,99662.88
2023-04-19T23:11:35.549Z,99664.84
2023-04-19T23:14:13.597Z,99667.75
2023-04-19T23:16:57.230Z,99670.84
2023-04-19T23:19:33.464Z,99675.75
2023-04-19T23:22:17.734Z,99673.28
2023-04-19T23:25:03.612Z,99674.78
2023-04-19T23:27:49.838Z,99675.59
2023-04-19T23:30:22.768Z,99673.06
2023-04-19T23:33:01.851Z,99673.38
2023-04-19T23:35:42.954Z,99668.53
2023-04-19T23:38:20.916Z,99667.19
2023-04-19T23:40:58.594Z,99672.56
2023-04-19T23:43:46.513Z,99663.63
2023-04-19T23:46:24.662Z,99667.03
2023-04-19T23:49:07.508Z,99666.66
2023-04-19T23:51:45.448Z,99663.75
2023-04-19T23:54:28.194Z,99676.19
2023-04-19T23:56:58.826Z,99672.56
2023-04-19T23:59:33.275Z,99671.75
